sensor_id;sensor_type;location;lat;lon;timestamp;P1;durP1;ratioP1;P2;durP2;ratioP2
3789;SDS011;1910;49.042;9.028;2023-09-08T00:01:28;13.70;;;6.17;;
3789;SDS011;1910;49.042;9.028;2023-09-08T00:03:53;14.17;;;7.73;;
3789;SDS011;1910;49.042;9.028;2023-09-08T00:06:19;7.67;;;6.00;;
3789;SDS011;1910;49.042;9.028;2023-09-08T00:08:44;7.57;;;5.53;;
3789;SDS011;1910;49.042;9.028;2023-09-08T00:11:10;8.10;;;5.70;;
3789;SDS011;1910;49.042;9.028;2023-09-08T00:13:35;6.27;;;5.10;;
3789;SDS011;1910;49.042;9.028;2023-09-08T00:16:01;6.90;;;6.17;;
3789;SDS011;1910;49.042;9.028;2023-09-08T00:18:27;8.50;;;6.20;;
3789;SDS011;1910;49.042;9.028;2023-09-08T00:20:52;7.97;;;5.50;;
3789;SDS011;1910;49.042;9.028;2023-09-08T00:23:18;7.90;;;5.33;;
3789;SDS011;1910;49.042;9.028;2023-09-08T00:25:43;8.80;;;6.00;;
3789;SDS011;1910;49.042;9.028;2023-09-08T00:28:09;12.20;;;6.40;;
3789;SDS011;1910;49.042;9.028;2023-09-08T00:30:34;12.30;;;7.17;;
3789;SDS011;1910;49.042;9.028;2023-09-08T00:33:00;13.90;;;6.70;;
3789;SDS011;1910;49.042;9.028;2023-09-08T00:35:25;12.80;;;7.37;;
3789;SDS011;1910;49.042;9.028;2023-09-08T00:37:51;12.00;;;7.27;;
3789;SDS011;1910;49.042;9.028;2023-09-08T00:40:16;11.20;;;7.50;;
3789;SDS011;1910;49.042;9.028;2023-09-08T00:42:42;13.77;;;8.60;;
3789;SDS011;1910;49.042;9.028;2023-09-08T00:45:07;16.80;;;7.40;;
3789;SDS011;1910;49.042;9.028;2023-09-08T00:47:33;9.53;;;7.23;;
3789;SDS011;1910;49.042;9.028;2023-09-08T00:50:00;11.73;;;7.10;;
3789;SDS011;1910;49.042;9.028;2023-09-08T00:52:28;11.93;;;7.60;;
3789;SDS011;1910;49.042;9.028;2023-09-08T00:54:57;14.57;;;8.13;;
3789;SDS011;1910;49.042;9.028;2023-09-08T00:57:23;9.60;;;7.13;;
3789;SDS011;1910;49.042;9.028;2023-09-08T00:59:49;10.83;;;6.90;;
3789;SDS011;1910;49.042;9.028;2023-09-08T01:02:15;9.70;;;7.70;;
3789;SDS011;1910;49.042;9.028;2023-09-08T01:04:41;11.33;;;7.10;;
3789;SDS011;1910;49.042;9.028;2023-09-08T01:07:06;14.27;;;8.80;;
3789;SDS011;1910;49.042;9.028;2023-09-08T01:09:33;10.30;;;7.57;;
3789;SDS011;1910;49.042;9.028;2023-09-08T01:11:59;11.13;;;7.53;;
3789;SDS011;1910;49.042;9.028;2023-09-08T01:14:29;11.63;;;7.90;;
3789;SDS011;1910;49.042;9.028;2023-09-08T01:16:55;11.03;;;7.57;;
3789;SDS011;1910;49.042;9.028;2023-09-08T01:19:21;8.40;;;7.10;;
3789;SDS011;1910;49.042;9.028;2023-09-08T01:28:03;11.00;;;6.67;;
3789;SDS011;1910;49.042;9.028;2023-09-08T01:30:30;12.50;;;7.03;;
3789;SDS011;1910;49.042;9.028;2023-09-08T01:32:58;8.77;;;7.00;;
3789;SDS011;1910;49.042;9.028;2023-09-08T01:35:24;9.87;;;8.47;;
3789;SDS011;1910;49.042;9.028;2023-09-08T01:37:50;9.73;;;8.40;;
3789;SDS011;1910;49.042;9.028;2023-09-08T01:40:16;12.47;;;8.10;;
3789;SDS011;1910;49.042;9.028;2023-09-08T01:42:44;12.90;;;8.50;;
3789;SDS011;1910;49.042;9.028;2023-09-08T01:45:10;13.50;;;8.90;;
3789;SDS011;1910;49.042;9.028;2023-09-08T01:47:36;10.37;;;7.77;;
3789;SDS011;1910;49.042;9.028;2023-09-08T01:50:02;11.07;;;8.00;;
3789;SDS011;1910;49.042;9.028;2023-09-08T01:52:27;8.43;;;7.00;;
3789;SDS011;1910;49.042;9.028;2023-09-08T01:54:53;8.70;;;7.60;;
3789;SDS011;1910;49.042;9.028;2023-09-08T01:57:19;11.03;;;7.83;;
3789;SDS011;1910;49.042;9.028;2023-09-08T01:59:44;14.80;;;8.50;;
3789;SDS011;1910;49.042;9.028;2023-09-08T02:02:10;12.73;;;8.30;;
3789;SDS011;1910;49.042;9.028;2023-09-08T02:04:36;12.57;;;8.73;;
3789;SDS011;1910;49.042;9.028;2023-09-08T02:07:02;11.77;;;8.50;;
3789;SDS011;1910;49.042;9.028;2023-09-08T02:09:30;10.23;;;8.80;;
3789;SDS011;1910;49.042;9.028;2023-09-08T02:12:00;11.10;;;8.53;;
3789;SDS011;1910;49.042;9.028;2023-09-08T02:14:26;13.70;;;8.43;;
3789;SDS011;1910;49.042;9.028;2023-09-08T02:16:52;12.00;;;8.70;;
3789;SDS011;1910;49.042;9.028;2023-09-08T02:19:21;12.10;;;8.40;;
3789;SDS011;1910;49.042;9.028;2023-09-08T02:21:47;11.00;;;8.60;;
3789;SDS011;1910;49.042;9.028;2023-09-08T02:24:13;10.30;;;7.00;;
3789;SDS011;1910;49.042;9.028;2023-09-08T02:26:38;10.97;;;8.13;;
3789;SDS011;1910;49.042;9.028;2023-09-08T02:29:04;13.23;;;8.73;;
3789;SDS011;1910;49.042;9.028;2023-09-08T02:31:30;12.80;;;8.60;;
3789;SDS011;1910;49.042;9.028;2023-09-08T02:33:55;11.70;;;7.67;;
3789;SDS011;1910;49.042;9.028;2023-09-08T02:36:21;12.73;;;8.50;;
3789;SDS011;1910;49.042;9.028;2023-09-08T02:38:51;15.07;;;7.70;;
3789;SDS011;1910;49.042;9.028;2023-09-08T02:41:17;9.93;;;7.50;;
3789;SDS011;1910;49.042;9.028;2023-09-08T02:43:42;11.93;;;7.70;;
3789;SDS011;1910;49.042;9.028;2023-09-08T02:46:08;10.83;;;7.87;;
3789;SDS011;1910;49.042;9.028;2023-09-08T02:48:34;9.33;;;8.20;;
3789;SDS011;1910;49.042;9.028;2023-09-08T02:51:00;10.67;;;8.13;;
3789;SDS011;1910;49.042;9.028;2023-09-08T02:53:25;14.07;;;8.20;;
3789;SDS011;1910;49.042;9.028;2023-09-08T02:55:53;14.60;;;8.00;;
3789;SDS011;1910;49.042;9.028;2023-09-08T02:58:19;16.63;;;7.63;;
3789;SDS011;1910;49.042;9.028;2023-09-08T03:00:45;12.33;;;9.20;;
3789;SDS011;1910;49.042;9.028;2023-09-08T03:03:11;16.70;;;8.07;;
3789;SDS011;1910;49.042;9.028;2023-09-08T03:05:36;12.93;;;8.17;;
3789;SDS011;1910;49.042;9.028;2023-09-08T03:08:02;11.87;;;7.87;;
3789;SDS011;1910;49.042;9.028;2023-09-08T03:10:28;12.43;;;8.00;;
3789;SDS011;1910;49.042;9.028;2023-09-08T03:12:53;16.77;;;8.80;;
3789;SDS011;1910;49.042;9.028;2023-09-08T03:15:20;10.77;;;8.10;;
3789;SDS011;1910;49.042;9.028;2023-09-08T03:17:45;13.43;;;8.20;;
3789;SDS011;1910;49.042;9.028;2023-09-08T03:20:11;13.93;;;8.60;;
3789;SDS011;1910;49.042;9.028;2023-09-08T03:22:38;11.67;;;8.90;;
3789;SDS011;1910;49.042;9.028;2023-09-08T03:25:04;15.53;;;10.37;;
3789;SDS011;1910;49.042;9.028;2023-09-08T03:27:30;11.57;;;8.30;;
3789;SDS011;1910;49.042;9.028;2023-09-08T03:29:55;12.00;;;8.90;;
3789;SDS011;1910;49.042;9.028;2023-09-08T03:32:21;12.27;;;9.40;;
3789;SDS011;1910;49.042;9.028;2023-09-08T03:34:46;11.60;;;9.00;;
3789;SDS011;1910;49.042;9.028;2023-09-08T03:37:12;10.90;;;8.40;;
3789;SDS011;1910;49.042;9.028;2023-09-08T03:39:37;14.97;;;9.30;;
3789;SDS011;1910;49.042;9.028;2023-09-08T03:42:03;12.83;;;9.40;;
3789;SDS011;1910;49.042;9.028;2023-09-08T03:44:28;9.83;;;7.33;;
3789;SDS011;1910;49.042;9.028;2023-09-08T03:46:54;10.97;;;7.93;;
3789;SDS011;1910;49.042;9.028;2023-09-08T03:49:19;12.63;;;8.80;;
3789;SDS011;1910;49.042;9.028;2023-09-08T03:51:45;12.23;;;8.20;;
3789;SDS011;1910;49.042;9.028;2023-09-08T03:54:10;15.87;;;7.53;;
3789;SDS011;1910;49.042;9.028;2023-09-08T03:56:36;12.53;;;9.23;;
3789;SDS011;1910;49.042;9.028;2023-09-08T03:59:01;9.13;;;7.40;;
3789;SDS011;1910;49.042;9.028;2023-09-08T04:01:27;18.00;;;7.10;;
3789;SDS011;1910;49.042;9.028;2023-09-08T04:03:52;9.83;;;7.50;;
3789;SDS011;1910;49.042;9.028;2023-09-08T04:06:18;9.43;;;7.50;;
3789;SDS011;1910;49.042;9.028;2023-09-08T04:08:43;14.60;;;8.13;;
3789;SDS011;1910;49.042;9.028;2023-09-08T04:11:09;12.23;;;8.93;;
3789;SDS011;1910;49.042;9.028;2023-09-08T04:13:34;12.90;;;8.93;;
3789;SDS011;1910;49.042;9.028;2023-09-08T04:16:00;11.40;;;8.57;;
3789;SDS011;1910;49.042;9.028;2023-09-08T04:18:25;13.40;;;8.70;;
3789;SDS011;1910;49.042;9.028;2023-09-08T04:20:52;12.57;;;9.60;;
3789;SDS011;1910;49.042;9.028;2023-09-08T04:23:17;10.80;;;8.43;;
3789;SDS011;1910;49.042;9.028;2023-09-08T04:25:43;10.30;;;8.40;;
3789;SDS011;1910;49.042;9.028;2023-09-08T04:28:08;11.43;;;8.03;;
3789;SDS011;1910;49.042;9.028;2023-09-08T04:30:34;10.33;;;7.33;;
3789;SDS011;1910;49.042;9.028;2023-09-08T04:32:59;15.13;;;10.57;;
3789;SDS011;1910;49.042;9.028;2023-09-08T04:35:25;10.77;;;8.27;;
3789;SDS011;1910;49.042;9.028;2023-09-08T04:37:51;14.17;;;9.63;;
3789;SDS011;1910;49.042;9.028;2023-09-08T04:40:16;17.20;;;9.40;;
3789;SDS011;1910;49.042;9.028;2023-09-08T04:42:42;10.00;;;8.67;;
3789;SDS011;1910;49.042;9.028;2023-09-08T04:45:07;10.87;;;7.20;;
3789;SDS011;1910;49.042;9.028;2023-09-08T04:47:33;15.73;;;8.10;;
3789;SDS011;1910;49.042;9.028;2023-09-08T04:49:59;13.83;;;8.70;;
3789;SDS011;1910;49.042;9.028;2023-09-08T04:52:24;13.70;;;8.63;;
3789;SDS011;1910;49.042;9.028;2023-09-08T04:54:50;11.83;;;8.43;;
3789;SDS011;1910;49.042;9.028;2023-09-08T04:57:15;13.40;;;9.90;;
3789;SDS011;1910;49.042;9.028;2023-09-08T04:59:41;10.70;;;8.23;;
3789;SDS011;1910;49.042;9.028;2023-09-08T05:02:06;10.83;;;8.53;;
3789;SDS011;1910;49.042;9.028;2023-09-08T05:04:32;12.40;;;9.77;;
3789;SDS011;1910;49.042;9.028;2023-09-08T05:06:57;12.50;;;9.80;;
3789;SDS011;1910;49.042;9.028;2023-09-08T05:09:23;11.67;;;9.17;;
3789;SDS011;1910;49.042;9.028;2023-09-08T05:11:48;11.70;;;8.27;;
3789;SDS011;1910;49.042;9.028;2023-09-08T05:14:14;17.37;;;9.70;;
3789;SDS011;1910;49.042;9.028;2023-09-08T05:16:39;14.80;;;9.10;;
3789;SDS011;1910;49.042;9.028;2023-09-08T05:19:11;13.37;;;8.80;;
3789;SDS011;1910;49.042;9.028;2023-09-08T05:21:40;11.47;;;8.60;;
3789;SDS011;1910;49.042;9.028;2023-09-08T05:24:06;15.03;;;8.60;;
3789;SDS011;1910;49.042;9.028;2023-09-08T05:26:33;12.17;;;7.60;;
3789;SDS011;1910;49.042;9.028;2023-09-08T05:29:01;9.33;;;7.13;;
3789;SDS011;1910;49.042;9.028;2023-09-08T05:31:26;10.00;;;7.80;;
3789;SDS011;1910;49.042;9.028;2023-09-08T05:33:52;15.30;;;6.83;;
3789;SDS011;1910;49.042;9.028;2023-09-08T05:36:17;10.10;;;7.13;;
3789;SDS011;1910;49.042;9.028;2023-09-08T05:38:43;8.97;;;7.30;;
3789;SDS011;1910;49.042;9.028;2023-09-08T05:41:08;9.40;;;7.67;;
3789;SDS011;1910;49.042;9.028;2023-09-08T05:43:34;11.60;;;6.93;;
3789;SDS011;1910;49.042;9.028;2023-09-08T05:46:00;14.70;;;7.10;;
3789;SDS011;1910;49.042;9.028;2023-09-08T05:48:25;10.23;;;7.10;;
3789;SDS011;1910;49.042;9.028;2023-09-08T05:50:51;10.40;;;7.37;;
3789;SDS011;1910;49.042;9.028;2023-09-08T05:53:16;9.63;;;7.87;;
3789;SDS011;1910;49.042;9.028;2023-09-08T05:55:42;10.97;;;8.30;;
3789;SDS011;1910;49.042;9.028;2023-09-08T05:58:07;14.30;;;7.60;;
3789;SDS011;1910;49.042;9.028;2023-09-08T06:00:33;12.53;;;7.47;;
3789;SDS011;1910;49.042;9.028;2023-09-08T06:02:59;11.33;;;7.60;;
3789;SDS011;1910;49.042;9.028;2023-09-08T06:05:24;12.33;;;8.40;;
3789;SDS011;1910;49.042;9.028;2023-09-08T06:07:50;9.13;;;7.63;;
3789;SDS011;1910;49.042;9.028;2023-09-08T06:10:15;8.97;;;7.83;;
3789;SDS011;1910;49.042;9.028;2023-09-08T06:12:41;13.23;;;8.30;;
3789;SDS011;1910;49.042;9.028;2023-09-08T06:15:08;10.67;;;8.10;;
3789;SDS011;1910;49.042;9.028;2023-09-08T06:17:34;9.30;;;8.40;;
3789;SDS011;1910;49.042;9.028;2023-09-08T06:19:59;9.87;;;7.40;;
3789;SDS011;1910;49.042;9.028;2023-09-08T06:22:25;10.97;;;8.53;;
3789;SDS011;1910;49.042;9.028;2023-09-08T06:24:50;14.70;;;9.37;;
3789;SDS011;1910;49.042;9.028;2023-09-08T06:27:16;9.20;;;7.40;;
3789;SDS011;1910;49.042;9.028;2023-09-08T06:29:41;9.43;;;7.90;;
3789;SDS011;1910;49.042;9.028;2023-09-08T06:32:08;12.00;;;8.13;;
3789;SDS011;1910;49.042;9.028;2023-09-08T06:34:34;10.47;;;7.30;;
3789;SDS011;1910;49.042;9.028;2023-09-08T06:37:00;9.70;;;8.50;;
3789;SDS011;1910;49.042;9.028;2023-09-08T06:39:27;12.83;;;8.37;;
3789;SDS011;1910;49.042;9.028;2023-09-08T06:41:52;10.30;;;7.90;;
3789;SDS011;1910;49.042;9.028;2023-09-08T06:44:19;10.00;;;8.40;;
3789;SDS011;1910;49.042;9.028;2023-09-08T06:46:45;10.67;;;8.33;;
3789;SDS011;1910;49.042;9.028;2023-09-08T06:49:11;11.80;;;9.13;;
3789;SDS011;1910;49.042;9.028;2023-09-08T06:51:36;8.90;;;8.10;;
3789;SDS011;1910;49.042;9.028;2023-09-08T06:54:03;9.20;;;8.30;;
3789;SDS011;1910;49.042;9.028;2023-09-08T06:56:29;14.83;;;9.83;;
3789;SDS011;1910;49.042;9.028;2023-09-08T06:58:55;9.37;;;7.40;;
3789;SDS011;1910;49.042;9.028;2023-09-08T07:01:24;11.10;;;9.00;;
3789;SDS011;1910;49.042;9.028;2023-09-08T07:03:50;10.60;;;8.80;;
3789;SDS011;1910;49.042;9.028;2023-09-08T07:06:15;13.00;;;8.40;;
3789;SDS011;1910;49.042;9.028;2023-09-08T07:08:41;15.23;;;9.53;;
3789;SDS011;1910;49.042;9.028;2023-09-08T07:11:07;11.13;;;8.63;;
3789;SDS011;1910;49.042;9.028;2023-09-08T07:13:32;13.07;;;9.40;;
3789;SDS011;1910;49.042;9.028;2023-09-08T07:15:58;14.07;;;9.83;;
3789;SDS011;1910;49.042;9.028;2023-09-08T07:18:24;12.33;;;9.00;;
3789;SDS011;1910;49.042;9.028;2023-09-08T07:20:49;15.23;;;10.03;;
3789;SDS011;1910;49.042;9.028;2023-09-08T07:23:18;15.03;;;10.23;;
3789;SDS011;1910;49.042;9.028;2023-09-08T07:25:47;9.80;;;8.67;;
3789;SDS011;1910;49.042;9.028;2023-09-08T07:28:14;13.33;;;10.03;;
3789;SDS011;1910;49.042;9.028;2023-09-08T07:30:40;9.33;;;7.90;;
3789;SDS011;1910;49.042;9.028;2023-09-08T07:33:05;11.20;;;8.43;;
3789;SDS011;1910;49.042;9.028;2023-09-08T07:35:31;9.77;;;8.77;;
3789;SDS011;1910;49.042;9.028;2023-09-08T07:37:57;14.70;;;8.17;;
3789;SDS011;1910;49.042;9.028;2023-09-08T07:40:22;9.20;;;8.23;;
3789;SDS011;1910;49.042;9.028;2023-09-08T07:42:48;11.23;;;8.80;;
3789;SDS011;1910;49.042;9.028;2023-09-08T07:45:14;11.37;;;8.87;;
3789;SDS011;1910;49.042;9.028;2023-09-08T07:47:39;10.17;;;7.83;;
3789;SDS011;1910;49.042;9.028;2023-09-08T07:52:50;9.83;;;8.83;;
3789;SDS011;1910;49.042;9.028;2023-09-08T07:55:17;10.10;;;9.10;;
3789;SDS011;1910;49.042;9.028;2023-09-08T07:57:44;10.00;;;9.20;;
3789;SDS011;1910;49.042;9.028;2023-09-08T08:00:11;10.73;;;9.83;;
3789;SDS011;1910;49.042;9.028;2023-09-08T08:05:31;12.50;;;8.60;;
3789;SDS011;1910;49.042;9.028;2023-09-08T08:07:56;8.50;;;7.80;;
3789;SDS011;1910;49.042;9.028;2023-09-08T08:10:22;10.53;;;8.00;;
3789;SDS011;1910;49.042;9.028;2023-09-08T08:12:47;9.50;;;7.90;;
3789;SDS011;1910;49.042;9.028;2023-09-08T08:15:13;11.10;;;7.90;;
3789;SDS011;1910;49.042;9.028;2023-09-08T08:17:39;9.30;;;7.90;;
3789;SDS011;1910;49.042;9.028;2023-09-08T08:20:05;11.53;;;8.47;;
3789;SDS011;1910;49.042;9.028;2023-09-08T08:22:33;9.60;;;7.80;;
3789;SDS011;1910;49.042;9.028;2023-09-08T08:24:59;7.77;;;6.93;;
3789;SDS011;1910;49.042;9.028;2023-09-08T08:27:25;10.90;;;6.90;;
3789;SDS011;1910;49.042;9.028;2023-09-08T08:29:50;8.27;;;7.37;;
3789;SDS011;1910;49.042;9.028;2023-09-08T08:32:16;9.73;;;8.73;;
3789;SDS011;1910;49.042;9.028;2023-09-08T08:34:42;10.67;;;8.80;;
3789;SDS011;1910;49.042;9.028;2023-09-08T08:37:10;9.23;;;8.33;;
3789;SDS011;1910;49.042;9.028;2023-09-08T08:39:36;11.13;;;8.80;;
3789;SDS011;1910;49.042;9.028;2023-09-08T08:42:08;11.83;;;8.97;;
3789;SDS011;1910;49.042;9.028;2023-09-08T08:44:34;10.97;;;9.10;;
3789;SDS011;1910;49.042;9.028;2023-09-08T08:47:02;9.30;;;8.40;;
3789;SDS011;1910;49.042;9.028;2023-09-08T08:49:30;10.00;;;9.17;;
3789;SDS011;1910;49.042;9.028;2023-09-08T08:51:58;10.07;;;9.07;;
3789;SDS011;1910;49.042;9.028;2023-09-08T08:54:24;14.30;;;8.87;;
3789;SDS011;1910;49.042;9.028;2023-09-08T08:56:50;13.10;;;10.10;;
3789;SDS011;1910;49.042;9.028;2023-09-08T08:59:16;12.20;;;9.23;;
3789;SDS011;1910;49.042;9.028;2023-09-08T09:01:42;10.10;;;9.10;;
3789;SDS011;1910;49.042;9.028;2023-09-08T09:04:08;15.23;;;9.10;;
3789;SDS011;1910;49.042;9.028;2023-09-08T09:06:34;11.00;;;10.00;;
3789;SDS011;1910;49.042;9.028;2023-09-08T09:09:00;10.70;;;9.83;;
3789;SDS011;1910;49.042;9.028;2023-09-08T09:11:26;10.60;;;9.80;;
3789;SDS011;1910;49.042;9.028;2023-09-08T09:13:52;10.67;;;9.67;;
3789;SDS011;1910;49.042;9.028;2023-09-08T09:16:18;11.30;;;10.50;;
3789;SDS011;1910;49.042;9.028;2023-09-08T09:18:58;12.57;;;9.90;;
3789;SDS011;1910;49.042;9.028;2023-09-08T09:21:25;15.13;;;10.80;;
3789;SDS011;1910;49.042;9.028;2023-09-08T09:27:01;11.13;;;9.97;;
3789;SDS011;1910;49.042;9.028;2023-09-08T09:29:30;11.73;;;10.73;;
3789;SDS011;1910;49.042;9.028;2023-09-08T09:31:57;11.93;;;10.80;;
3789;SDS011;1910;49.042;9.028;2023-09-08T09:34:27;12.30;;;11.40;;
3789;SDS011;1910;49.042;9.028;2023-09-08T09:36:53;12.47;;;11.47;;
3789;SDS011;1910;49.042;9.028;2023-09-08T09:39:22;15.53;;;12.20;;
3789;SDS011;1910;49.042;9.028;2023-09-08T09:41:52;13.97;;;12.77;;
3789;SDS011;1910;49.042;9.028;2023-09-08T09:44:19;14.23;;;13.03;;
3789;SDS011;1910;49.042;9.028;2023-09-08T09:46:46;14.53;;;13.43;;
3789;SDS011;1910;49.042;9.028;2023-09-08T09:49:12;13.17;;;12.27;;
3789;SDS011;1910;49.042;9.028;2023-09-08T09:51:45;12.90;;;11.70;;
3789;SDS011;1910;49.042;9.028;2023-09-08T09:54:13;15.07;;;13.67;;
3789;SDS011;1910;49.042;9.028;2023-09-08T09:56:39;14.07;;;13.00;;
3789;SDS011;1910;49.042;9.028;2023-09-08T09:59:09;13.30;;;12.30;;
3789;SDS011;1910;49.042;9.028;2023-09-08T10:01:36;13.73;;;12.70;;
3789;SDS011;1910;49.042;9.028;2023-09-08T10:04:03;13.73;;;12.53;;
3789;SDS011;1910;49.042;9.028;2023-09-08T10:06:33;14.33;;;13.03;;
3789;SDS011;1910;49.042;9.028;2023-09-08T10:09:01;13.10;;;12.00;;
3789;SDS011;1910;49.042;9.028;2023-09-08T10:11:34;14.50;;;10.80;;
3789;SDS011;1910;49.042;9.028;2023-09-08T10:14:10;11.50;;;10.30;;
3789;SDS011;1910;49.042;9.028;2023-09-08T10:16:38;10.00;;;8.37;;
3789;SDS011;1910;49.042;9.028;2023-09-08T10:19:07;11.23;;;8.30;;
3789;SDS011;1910;49.042;9.028;2023-09-08T10:21:36;9.50;;;7.87;;
3789;SDS011;1910;49.042;9.028;2023-09-08T10:24:13;9.20;;;8.30;;
3789;SDS011;1910;49.042;9.028;2023-09-08T10:26:46;9.10;;;7.30;;
3789;SDS011;1910;49.042;9.028;2023-09-08T10:29:16;9.53;;;8.53;;
3789;SDS011;1910;49.042;9.028;2023-09-08T10:31:44;8.87;;;7.97;;
3789;SDS011;1910;49.042;9.028;2023-09-08T10:34:10;14.40;;;7.70;;
3789;SDS011;1910;49.042;9.028;2023-09-08T10:36:36;9.20;;;8.00;;
3789;SDS011;1910;49.042;9.028;2023-09-08T10:44:43;10.80;;;7.40;;
3789;SDS011;1910;49.042;9.028;2023-09-08T10:47:09;9.50;;;7.37;;
3789;SDS011;1910;49.042;9.028;2023-09-08T10:49:35;12.20;;;7.70;;
3789;SDS011;1910;49.042;9.028;2023-09-08T10:52:08;8.63;;;7.20;;
3789;SDS011;1910;49.042;9.028;2023-09-08T10:54:44;7.73;;;6.93;;
3789;SDS011;1910;49.042;9.028;2023-09-08T10:57:13;8.30;;;6.97;;
3789;SDS011;1910;49.042;9.028;2023-09-08T10:59:40;8.27;;;7.40;;
3789;SDS011;1910;49.042;9.028;2023-09-08T11:02:32;11.70;;;7.20;;
3789;SDS011;1910;49.042;9.028;2023-09-08T11:05:03;8.17;;;7.43;;
3789;SDS011;1910;49.042;9.028;2023-09-08T11:07:31;7.83;;;6.87;;
3789;SDS011;1910;49.042;9.028;2023-09-08T11:09:57;9.60;;;7.50;;
3789;SDS011;1910;49.042;9.028;2023-09-08T11:12:26;8.83;;;7.30;;
3789;SDS011;1910;49.042;9.028;2023-09-08T11:14:52;9.70;;;7.70;;
3789;SDS011;1910;49.042;9.028;2023-09-08T11:17:18;6.70;;;6.00;;
3789;SDS011;1910;49.042;9.028;2023-09-08T11:19:47;9.83;;;8.10;;
3789;SDS011;1910;49.042;9.028;2023-09-08T11:22:17;8.73;;;7.40;;
3789;SDS011;1910;49.042;9.028;2023-09-08T11:24:43;9.47;;;6.80;;
3789;SDS011;1910;49.042;9.028;2023-09-08T11:27:09;9.90;;;6.90;;
3789;SDS011;1910;49.042;9.028;2023-09-08T11:29:36;7.53;;;6.60;;
3789;SDS011;1910;49.042;9.028;2023-09-08T11:32:05;10.63;;;7.00;;
3789;SDS011;1910;49.042;9.028;2023-09-08T11:34:32;8.53;;;6.60;;
3789;SDS011;1910;49.042;9.028;2023-09-08T11:36:58;8.67;;;6.40;;
3789;SDS011;1910;49.042;9.028;2023-09-08T11:39:24;9.50;;;7.60;;
3789;SDS011;1910;49.042;9.028;2023-09-08T11:41:50;14.73;;;6.77;;
3789;SDS011;1910;49.042;9.028;2023-09-08T11:44:17;11.70;;;7.60;;
3789;SDS011;1910;49.042;9.028;2023-09-08T11:46:43;9.37;;;6.97;;
3789;SDS011;1910;49.042;9.028;2023-09-08T11:49:09;7.77;;;6.17;;
3789;SDS011;1910;49.042;9.028;2023-09-08T11:51:34;8.03;;;6.33;;
3789;SDS011;1910;49.042;9.028;2023-09-08T11:54:01;7.83;;;6.87;;
3789;SDS011;1910;49.042;9.028;2023-09-08T11:56:27;7.40;;;6.60;;
3789;SDS011;1910;49.042;9.028;2023-09-08T11:58:53;9.47;;;6.87;;
3789;SDS011;1910;49.042;9.028;2023-09-08T12:01:19;8.43;;;6.73;;
3789;SDS011;1910;49.042;9.028;2023-09-08T12:03:52;7.70;;;6.83;;
3789;SDS011;1910;49.042;9.028;2023-09-08T12:06:26;10.33;;;7.73;;
3789;SDS011;1910;49.042;9.028;2023-09-08T12:08:53;10.70;;;8.20;;
3789;SDS011;1910;49.042;9.028;2023-09-08T12:11:19;8.27;;;6.50;;
3789;SDS011;1910;49.042;9.028;2023-09-08T12:13:44;9.80;;;7.17;;
3789;SDS011;1910;49.042;9.028;2023-09-08T12:16:20;8.03;;;7.17;;
3789;SDS011;1910;49.042;9.028;2023-09-08T12:18:48;8.53;;;6.73;;
3789;SDS011;1910;49.042;9.028;2023-09-08T12:21:15;11.33;;;6.60;;
3789;SDS011;1910;49.042;9.028;2023-09-08T12:23:47;6.87;;;6.27;;
3789;SDS011;1910;49.042;9.028;2023-09-08T12:26:14;8.57;;;7.40;;
3789;SDS011;1910;49.042;9.028;2023-09-08T12:28:41;7.20;;;6.47;;
3789;SDS011;1910;49.042;9.028;2023-09-08T12:31:07;6.23;;;5.73;;
3789;SDS011;1910;49.042;9.028;2023-09-08T12:33:34;9.00;;;7.27;;
3789;SDS011;1910;49.042;9.028;2023-09-08T12:36:03;8.80;;;6.70;;
3789;SDS011;1910;49.042;9.028;2023-09-08T12:38:46;7.90;;;6.50;;
3789;SDS011;1910;49.042;9.028;2023-09-08T12:41:12;7.23;;;6.50;;
3789;SDS011;1910;49.042;9.028;2023-09-08T12:43:38;10.33;;;6.50;;
3789;SDS011;1910;49.042;9.028;2023-09-08T12:46:04;10.13;;;7.83;;
3789;SDS011;1910;49.042;9.028;2023-09-08T12:48:29;8.90;;;6.20;;
3789;SDS011;1910;49.042;9.028;2023-09-08T12:50:55;7.10;;;6.50;;
3789;SDS011;1910;49.042;9.028;2023-09-08T12:53:21;8.20;;;7.23;;
3789;SDS011;1910;49.042;9.028;2023-09-08T12:55:48;12.47;;;7.03;;
3789;SDS011;1910;49.042;9.028;2023-09-08T12:58:13;6.97;;;6.30;;
3789;SDS011;1910;49.042;9.028;2023-09-08T13:00:39;7.00;;;6.30;;
3789;SDS011;1910;49.042;9.028;2023-09-08T13:03:05;9.10;;;7.37;;
3789;SDS011;1910;49.042;9.028;2023-09-08T13:05:31;8.40;;;6.73;;
3789;SDS011;1910;49.042;9.028;2023-09-08T13:07:57;9.03;;;7.63;;
3789;SDS011;1910;49.042;9.028;2023-09-08T13:10:22;8.23;;;6.90;;
3789;SDS011;1910;49.042;9.028;2023-09-08T13:12:48;7.93;;;7.13;;
3789;SDS011;1910;49.042;9.028;2023-09-08T13:15:15;8.07;;;6.33;;
3789;SDS011;1910;49.042;9.028;2023-09-08T13:17:41;7.70;;;6.90;;
3789;SDS011;1910;49.042;9.028;2023-09-08T13:20:06;6.37;;;5.77;;
3789;SDS011;1910;49.042;9.028;2023-09-08T13:22:33;13.63;;;6.93;;
3789;SDS011;1910;49.042;9.028;2023-09-08T13:24:59;9.00;;;6.90;;
3789;SDS011;1910;49.042;9.028;2023-09-08T13:27:24;9.07;;;7.40;;
3789;SDS011;1910;49.042;9.028;2023-09-08T13:29:50;8.60;;;6.13;;
3789;SDS011;1910;49.042;9.028;2023-09-08T13:32:18;8.63;;;6.60;;
3789;SDS011;1910;49.042;9.028;2023-09-08T13:34:43;7.20;;;6.50;;
3789;SDS011;1910;49.042;9.028;2023-09-08T13:37:09;9.53;;;8.27;;
3789;SDS011;1910;49.042;9.028;2023-09-08T13:39:35;7.87;;;6.87;;
3789;SDS011;1910;49.042;9.028;2023-09-08T13:42:01;8.80;;;6.73;;
3789;SDS011;1910;49.042;9.028;2023-09-08T13:44:27;9.27;;;6.87;;
3789;SDS011;1910;49.042;9.028;2023-09-08T13:46:53;8.40;;;7.03;;
3789;SDS011;1910;49.042;9.028;2023-09-08T13:49:19;7.87;;;7.07;;
3789;SDS011;1910;49.042;9.028;2023-09-08T13:51:45;7.70;;;6.90;;
3789;SDS011;1910;49.042;9.028;2023-09-08T13:54:11;8.07;;;7.37;;
3789;SDS011;1910;49.042;9.028;2023-09-08T13:56:38;8.33;;;7.50;;
3789;SDS011;1910;49.042;9.028;2023-09-08T13:59:05;8.37;;;6.90;;
3789;SDS011;1910;49.042;9.028;2023-09-08T14:01:32;9.07;;;7.30;;
3789;SDS011;1910;49.042;9.028;2023-09-08T14:03:58;10.40;;;6.30;;
3789;SDS011;1910;49.042;9.028;2023-09-08T14:06:25;6.00;;;5.50;;
3789;SDS011;1910;49.042;9.028;2023-09-08T14:08:51;8.70;;;6.67;;
3789;SDS011;1910;49.042;9.028;2023-09-08T14:11:17;11.87;;;7.90;;
3789;SDS011;1910;49.042;9.028;2023-09-08T14:13:43;7.87;;;6.40;;
3789;SDS011;1910;49.042;9.028;2023-09-08T14:16:08;9.17;;;6.63;;
3789;SDS011;1910;49.042;9.028;2023-09-08T14:18:34;8.10;;;6.40;;
3789;SDS011;1910;49.042;9.028;2023-09-08T14:21:00;8.00;;;7.20;;
3789;SDS011;1910;49.042;9.028;2023-09-08T14:23:26;11.00;;;7.00;;
3789;SDS011;1910;49.042;9.028;2023-09-08T14:25:51;8.80;;;6.40;;
3789;SDS011;1910;49.042;9.028;2023-09-08T14:28:17;10.20;;;7.30;;
3789;SDS011;1910;49.042;9.028;2023-09-08T14:30:43;11.53;;;7.07;;
3789;SDS011;1910;49.042;9.028;2023-09-08T14:33:10;8.60;;;7.80;;
3789;SDS011;1910;49.042;9.028;2023-09-08T14:35:35;8.90;;;6.63;;
3789;SDS011;1910;49.042;9.028;2023-09-08T14:38:07;7.97;;;6.63;;
3789;SDS011;1910;49.042;9.028;2023-09-08T14:40:33;10.77;;;6.87;;
3789;SDS011;1910;49.042;9.028;2023-09-08T14:42:58;9.93;;;6.77;;
3789;SDS011;1910;49.042;9.028;2023-09-08T14:45:24;12.83;;;6.60;;
3789;SDS011;1910;49.042;9.028;2023-09-08T14:47:51;8.67;;;6.90;;
3789;SDS011;1910;49.042;9.028;2023-09-08T14:50:18;7.10;;;6.17;;
3789;SDS011;1910;49.042;9.028;2023-09-08T14:52:44;9.40;;;6.87;;
3789;SDS011;1910;49.042;9.028;2023-09-08T14:55:09;7.97;;;7.17;;
3789;SDS011;1910;49.042;9.028;2023-09-08T14:57:35;7.70;;;6.90;;
3789;SDS011;1910;49.042;9.028;2023-09-08T15:00:02;10.43;;;6.70;;
3789;SDS011;1910;49.042;9.028;2023-09-08T15:02:29;8.30;;;6.37;;
3789;SDS011;1910;49.042;9.028;2023-09-08T15:04:58;13.23;;;6.73;;
3789;SDS011;1910;49.042;9.028;2023-09-08T15:07:24;6.70;;;6.10;;
3789;SDS011;1910;49.042;9.028;2023-09-08T15:09:49;8.13;;;7.30;;
3789;SDS011;1910;49.042;9.028;2023-09-08T15:12:18;12.87;;;6.00;;
3789;SDS011;1910;49.042;9.028;2023-09-08T15:14:44;9.90;;;7.27;;
3789;SDS011;1910;49.042;9.028;2023-09-08T15:17:10;11.43;;;6.10;;
3789;SDS011;1910;49.042;9.028;2023-09-08T15:19:37;10.20;;;5.50;;
3789;SDS011;1910;49.042;9.028;2023-09-08T15:22:04;8.80;;;6.80;;